createdAt,value
2023-04-19T00:01:28.255Z,102330.94
2023-04-19T00:06:31.811Z,102370.31
2023-04-19T00:11:34.479Z,102380.34
2023-04-19T00:16:38.395Z,102371.47
2023-04-19T00:21:40.961Z,102361.97
2023-04-19T00:26:44.524Z,102368.09
2023-04-19T00:31:48.451Z,102375.91
2023-04-19T00:36:50.989Z,102372.31
2023-04-19T00:41:54.248Z,102368.81
2023-04-19T00:46:58.807Z,102373.03
2023-04-19T00:52:01.352Z,102369.41
2023-04-19T00:57:03.945Z,102368.66
2023-04-19T01:02:08.318Z,102337.22
2023-04-19T01:07:11.726Z,102348.25
2023-04-19T01:12:14.288Z,102350.22
2023-04-19T01:17:20.283Z,102351.13
2023-04-19T01:22:24.190Z,102356.00
2023-04-19T01:27:27.800Z,102347.91
2023-04-19T01:32:30.427Z,102345.03
2023-04-19T01:37:37.247Z,102347.56
2023-04-19T01:42:40.502Z,102340.50
2023-04-19T01:47:43.224Z,102343.88
2023-04-19T01:52:47.142Z,102293.78
2023-04-19T01:57:49.720Z,102334.41
2023-04-19T02:02:52.422Z,102341.44
2023-04-19T02:07:56.403Z,102336.34
2023-04-19T02:12:58.978Z,102330.91
2023-04-19T02:18:01.544Z,102321.47
2023-04-19T02:23:05.531Z,102331.66
2023-04-19T02:28:09.677Z,102324.47
2023-04-19T02:33:12.454Z,102315.00
2023-04-19T02:38:16.446Z,102313.41
2023-04-19T02:43:19.000Z,102324.31
2023-04-19T02:48:21.581Z,102320.22
2023-04-19T02:53:25.577Z,102322.97
2023-04-19T02:58:28.407Z,102326.13
2023-04-19T03:03:42.108Z,102321.69
2023-04-19T03:08:46.321Z,102317.38
2023-04-19T03:13:49.183Z,102302.59
2023-04-19T03:18:51.881Z,102282.19
2023-04-19T03:24:00.539Z,102289.63
2023-04-19T03:29:03.234Z,102296.59
2023-04-19T03:34:13.813Z,102276.50
2023-04-19T03:39:21.729Z,102294.13
2023-04-19T03:44:27.608Z,102296.00
2023-04-19T03:49:30.528Z,102293.13
2023-04-19T03:54:41.312Z,102292.28
2023-04-19T03:59:53.603Z,102291.34
2023-04-19T04:04:56.584Z,102293.13
2023-04-19T04:10:01.494Z,102299.59
2023-04-19T04:15:07.270Z,102303.16
2023-04-19T04:20:13.926Z,102307.69
2023-04-19T04:25:19.557Z,102301.88
2023-04-19T04:30:26.561Z,102293.66
2023-04-19T04:35:31.848Z,102300.03
2023-04-19T04:40:44.327Z,102300.69
2023-04-19T04:45:46.934Z,102313.78
2023-04-19T04:50:50.439Z,102306.78
2023-04-19T04:55:55.456Z,102309.38
2023-04-19T05:00:58.549Z,102305.78
2023-04-19T05:06:02.842Z,102311.19
2023-04-19T05:11:08.310Z,102313.13
2023-04-19T05:16:12.787Z,102320.38
2023-04-19T05:21:18.504Z,102324.59
2023-04-19T05:26:23.001Z,102327.00
2023-04-19T05:31:26.927Z,102324.34
2023-04-19T05:36:47.908Z,102323.09
2023-04-19T05:41:53.012Z,102325.63
2023-04-19T05:46:55.695Z,102318.69
2023-04-19T05:52:18.212Z,102323.03
2023-04-19T05:57:26.824Z,102329.44
2023-04-19T06:02:29.707Z,102326.63
2023-04-19T06:07:34.472Z,102332.81
2023-04-19T06:12:44.161Z,102322.19
2023-04-19T06:17:46.838Z,102335.47
2023-04-19T06:22:49.844Z,102338.91
2023-04-19T06:27:53.864Z,102338.13
2023-04-19T06:32:56.489Z,102339.06
2023-04-19T06:38:02.300Z,102340.63
2023-04-19T06:43:06.976Z,102332.94
2023-04-19T06:48:09.908Z,102324.41
2023-04-19T06:53:12.508Z,102328.91
2023-04-19T06:58:16.394Z,102330.28
2023-04-19T07:03:19.284Z,102326.88
2023-04-19T07:08:21.916Z,102321.03
2023-04-19T07:13:25.892Z,102317.31
2023-04-19T07:18:28.654Z,102299.19
2023-04-19T07:23:31.639Z,102322.03
2023-04-19T07:28:35.979Z,102313.69
2023-04-19T07:33:38.599Z,102311.06
2023-04-19T07:38:41.599Z,102314.56
2023-04-19T07:43:45.635Z,102310.91
2023-04-19T07:48:48.236Z,102316.00
2023-04-19T07:53:51.011Z,102319.13
2023-04-19T07:59:06.811Z,102316.38
2023-04-19T08:04:11.149Z,102309.28
2023-04-19T08:09:13.956Z,102312.53
2023-04-19T08:14:32.355Z,102294.00
2023-04-19T08:19:41.602Z,102317.59
2023-04-19T08:24:44.197Z,102309.31
2023-04-19T08:29:48.228Z,102317.50
2023-04-19T08:34:50.786Z,102286.03
2023-04-19T08:39:54.038Z,102311.97
2023-04-19T08:45:23.481Z,102320.41
2023-04-19T08:50:32.136Z,102291.09
2023-04-19T08:55:40.878Z,102312.25
2023-04-19T09:00:49.330Z,102318.34
2023-04-19T09:05:52.248Z,102313.97
2023-04-19T09:10:56.559Z,102304.19
2023-04-19T09:16:01.101Z,102302.84
2023-04-19T09:21:03.769Z,102299.09
2023-04-19T09:26:22.713Z,102295.97
2023-04-19T09:31:43.505Z,102307.97
2023-04-19T09:37:00.504Z,102302.88
2023-04-19T09:42:11.371Z,102291.16
2023-04-19T09:47:35.000Z,102284.38
2023-04-19T09:52:38.602Z,102283.84
2023-04-19T09:57:41.657Z,102288.75
2023-04-19T10:02:48.749Z,102280.59
2023-04-19T10:07:59.286Z,102285.53
2023-04-19T10:13:18.898Z,102281.47
2023-04-19T10:18:24.763Z,102287.31
2023-04-19T10:23:27.646Z,102271.47
2023-04-19T10:28:30.913Z,102274.75
2023-04-19T10:33:38.548Z,102272.94
2023-04-19T10:38:43.337Z,102262.59
2023-04-19T10:43:47.739Z,102257.78
2023-04-19T10:48:58.093Z,102256.84
2023-04-19T10:54:01.978Z,102247.78
2023-04-19T10:59:23.168Z,102249.97
2023-04-19T11:05:01.005Z,102244.06
2023-04-19T11:10:03.623Z,102229.78
2023-04-19T11:15:09.435Z,102230.72
2023-04-19T11:20:14.485Z,102222.81
2023-04-19T11:25:19.037Z,102225.66
2023-04-19T11:30:23.288Z,102210.66
2023-04-19T11:35:30.199Z,102202.88
2023-04-19T11:40:33.103Z,102182.97
2023-04-19T11:45:39.558Z,102183.97
2023-04-19T11:50:45.913Z,102177.03
2023-04-19T11:55:51.048Z,102142.31
2023-04-19T12:00:53.686Z,102162.28
2023-04-19T12:05:59.026Z,102155.94
2023-04-19T12:11:03.249Z,102154.22
2023-04-19T12:16:06.237Z,102158.94
2023-04-19T12:21:10.527Z,102146.22
2023-04-19T12:26:13.203Z,102138.22
2023-04-19T12:31:16.408Z,102134.78
2023-04-19T12:36:21.008Z,102137.75
2023-04-19T12:41:23.563Z,102130.28
2023-04-19T12:46:26.244Z,102125.19
2023-04-19T12:51:34.021Z,102122.66
2023-04-19T12:56:37.384Z,102109.44
2023-04-19T13:01:39.932Z,102110.06
2023-04-19T13:06:43.906Z,102102.84
2023-04-19T13:11:46.471Z,102098.19
2023-04-19T13:16:49.195Z,102093.56
2023-04-19T13:21:53.256Z,102080.09
2023-04-19T13:26:56.536Z,102073.19
2023-04-19T13:31:59.437Z,102090.00
2023-04-19T13:37:03.298Z,102072.69
2023-04-19T13:42:06.113Z,102054.72
2023-04-19T13:47:08.715Z,102038.94
2023-04-19T13:52:13.096Z,102043.13
2023-04-19T13:57:16.225Z,102045.53
2023-04-19T14:02:18.958Z,102047.63
2023-04-19T14:07:22.896Z,102024.38
2023-04-19T14:12:27.137Z,102023.31
2023-04-19T14:17:30.004Z,102005.72
2023-04-19T14:22:35.051Z,102012.75
2023-04-19T14:27:38.316Z,102010.84
2023-04-19T14:32:40.988Z,101997.41
2023-04-19T14:37:44.953Z,101991.25
2023-04-19T14:42:47.535Z,101983.03
2023-04-19T14:47:51.351Z,101990.06
2023-04-19T14:52:55.706Z,101968.34
2023-04-19T14:57:58.319Z,101969.63
2023-04-19T15:03:02.402Z,101954.69
2023-04-19T15:08:09.145Z,101955.53
2023-04-19T15:13:17.617Z,101943.34
2023-04-19T15:18:20.239Z,101938.31
2023-04-19T15:23:25.880Z,101929.88
2023-04-19T15:28:28.419Z,101937.88
2023-04-19T15:33:31.651Z,101937.34
2023-04-19T15:38:36.023Z,101933.50
2023-04-19T15:43:38.994Z,101933.50
2023-04-19T15:48:46.585Z,101935.19
2023-04-19T15:53:50.565Z,101929.38
2023-04-19T15:58:53.122Z,101916.69
2023-04-19T16:03:55.851Z,101909.84
2023-04-19T16:08:59.928Z,101915.41
2023-04-19T16:14:02.490Z,101917.59
2023-04-19T16:19:05.060Z,101910.59
2023-04-19T16:24:09.137Z,101914.03
2023-04-19T16:29:12.061Z,101916.88
2023-04-19T16:34:15.024Z,101914.75
2023-04-19T16:39:19.241Z,101921.69
2023-04-19T16:44:22.197Z,101917.84
2023-04-19T16:49:25.415Z,101906.97
2023-04-19T16:54:29.315Z,101894.56
2023-04-19T16:59:32.289Z,101901.28
2023-04-19T17:04:35.437Z,101891.78
2023-04-19T17:09:39.625Z,101889.81
2023-04-19T17:14:42.222Z,101896.69
2023-04-19T17:19:44.953Z,101896.00
2023-04-19T17:24:48.882Z,101893.78
2023-04-19T17:29:51.582Z,101891.28
2023-04-19T17:34:54.136Z,101893.06
2023-04-19T17:39:58.119Z,101898.81
2023-04-19T17:45:00.721Z,101900.81
2023-04-19T17:50:07.915Z,101898.53
2023-04-19T17:55:11.992Z,101910.66
2023-04-19T18:00:16.308Z,101870.75
2023-04-19T18:05:19.265Z,101806.34
2023-04-19T18:10:23.194Z,101898.16
2023-04-19T18:15:25.822Z,101903.88
2023-04-19T18:20:28.621Z,101908.25
2023-04-19T18:25:35.185Z,101907.31
2023-04-19T18:30:37.760Z,101924.31
2023-04-19T18:35:41.220Z,101846.44
2023-04-19T18:40:45.618Z,101931.59
2023-04-19T18:45:54.162Z,101931.47
2023-04-19T18:50:57.746Z,101937.72
2023-04-19T18:56:02.285Z,101936.56
2023-04-19T19:01:05.113Z,101949.63
2023-04-19T19:06:08.040Z,101950.09
2023-04-19T19:11:37.259Z,101961.84
2023-04-19T19:21:40.530Z,101941.31
2023-04-19T19:26:44.481Z,101972.31
2023-04-19T19:31:47.100Z,101976.44
2023-04-19T19:36:50.690Z,101972.44
2023-04-19T19:47:00.095Z,101982.41
2023-04-19T19:52:03.823Z,101969.31
2023-04-19T19:58:07.171Z,101983.41
2023-04-19T20:02:33.863Z,101988.97
2023-04-19T20:08:00.604Z,101991.06
2023-04-19T20:13:06.074Z,101995.00
2023-04-19T20:18:09.202Z,101981.09
2023-04-19T20:23:12.209Z,102001.06
2023-04-19T20:28:16.153Z,101989.28
2023-04-19T20:33:18.784Z,101986.88
2023-04-19T20:38:23.184Z,101990.56
2023-04-19T20:43:27.062Z,101990.88
2023-04-19T20:48:31.087Z,101987.84
2023-04-19T20:53:33.665Z,101998.22
2023-04-19T20:58:38.315Z,101990.03
2023-04-19T21:03:40.987Z,101991.66
2023-04-19T21:08:43.610Z,101988.28
2023-04-19T21:13:47.613Z,101975.19
2023-04-19T21:18:50.146Z,101967.16
2023-04-19T21:23:52.670Z,101980.84
2023-04-19T21:28:56.538Z,101986.44
2023-04-19T21:33:59.055Z,101893.63
2023-04-19T21:39:07.705Z,101973.25
2023-04-19T21:44:12.696Z,101978.38
2023-04-19T21:49:15.637Z,101972.19
2023-04-19T21:54:30.711Z,101969.09
2023-04-19T21:59:38.139Z,101975.16
2023-04-19T22:04:41.418Z,101975.31
2023-04-19T22:09:44.371Z,101967.19
2023-04-19T22:14:48.264Z,101959.06
2023-04-19T22:19:51.391Z,101963.81
2023-04-19T22:24:57.838Z,101957.69
2023-04-19T22:30:02.301Z,101953.00
2023-04-19T22:35:06.619Z,101955.75
2023-04-19T22:40:10.358Z,101945.00
2023-04-19T22:45:14.246Z,101953.09
2023-04-19T22:50:16.812Z,101941.69
2023-04-19T22:55:19.409Z,101942.41
2023-04-19T23:00:23.998Z,101934.66
2023-04-19T23:05:27.052Z,101924.97
2023-04-19T23:10:29.577Z,101913.09
2023-04-19T23:15:34.342Z,101904.25
2023-04-19T23:20:36.966Z,101905.53
2023-04-19T23:25:39.493Z,101893.69
2023-04-19T23:30:43.401Z,101894.78
2023-04-19T23:35:45.971Z,101883.22
2023-04-19T23:40:48.511Z,101881.81
2023-04-19T23:45:52.383Z,101873.94
2023-04-19T23:50:55.562Z,101876.16
2023-04-19T23:55:58.105Z,101859.38
